Terminal Aerodrome Forecast
Issued by NWS

Home | Current Version | Previous Version | Text Only | Print | Product List | Glossary On
Versions: 1 2 3 4 5 6 7 8 9 10 11 12 13 14 15 16 17 18 19 20 21 22 23 24 25 26 27 28 29
212
FTUS45 KSLC 251745
TAFENV
TAF
KENV 251745Z 2518/2618 31012G20KT P6SM VCSH SCT050 BKN080
     FM252300 33010KT P6SM VCSH SCT040 BKN080
     FM260200 31012G18KT P6SM SCT040 BKN060
     FM260400 VRB06KT P6SM SCT070 BKN100
     FM261200 34009KT P6SM SCT050 BKN100
      AMD LTD TO CLD VIS AND WIND=

USA.gov is the U.S. government's official web portal to all federal, state and local government web resources and services.